createdAt,value
2022-12-04T00:01:39.191Z,44.87
2022-12-04T00:04:07.402Z,49.13
2022-12-04T00:06:37.797Z,48.80
2022-12-04T00:09:06.522Z,52.07
2022-12-04T00:11:36.142Z,50.67
2022-12-04T00:14:07.161Z,51.37
2022-12-04T00:16:36.290Z,50.20
2022-12-04T00:19:05.035Z,45.67
2022-12-04T00:21:33.358Z,47.90
2022-12-04T00:24:02.148Z,48.83
2022-12-04T00:26:31.600Z,49.77
2022-12-04T00:29:01.639Z,50.40
2022-12-04T00:31:31.571Z,50.33
2022-12-04T00:34:00.847Z,55.47
2022-12-04T00:36:31.029Z,57.97
2022-12-04T00:39:00.593Z,51.40
2022-12-04T00:41:31.224Z,52.53
2022-12-04T00:44:01.350Z,51.10
2022-12-04T00:46:29.883Z,54.30
2022-12-04T00:48:58.968Z,54.07
2022-12-04T00:51:27.125Z,54.13
2022-12-04T00:53:55.369Z,53.03
2022-12-04T00:56:25.354Z,52.50
2022-12-04T00:58:54.677Z,56.70
2022-12-04T01:01:25.382Z,51.70
2022-12-04T01:03:55.251Z,45.80
2022-12-04T01:06:25.980Z,50.80
2022-12-04T01:08:56.123Z,50.57
2022-12-04T01:11:26.070Z,52.37
2022-12-04T01:13:54.429Z,50.70
2022-12-04T01:16:26.569Z,56.33
2022-12-04T01:18:54.827Z,52.17
2022-12-04T01:21:23.226Z,55.93
2022-12-04T01:23:51.479Z,53.83
2022-12-04T01:26:20.387Z,54.77
2022-12-04T01:28:48.662Z,52.07
2022-12-04T01:31:19.361Z,54.70
2022-12-04T01:33:49.971Z,51.80
2022-12-04T01:36:20.544Z,50.20
2022-12-04T01:38:48.984Z,49.83
2022-12-04T01:41:20.394Z,57.13
2022-12-04T01:44:07.709Z,48.87
2022-12-04T01:46:35.860Z,47.73
2022-12-04T01:49:07.929Z,50.23
2022-12-04T01:51:40.412Z,52.07
2022-12-04T01:54:12.522Z,53.83
2022-12-04T01:56:46.246Z,50.37
2022-12-04T01:59:18.175Z,53.07
2022-12-04T02:01:53.611Z,56.73
2022-12-04T02:04:23.212Z,51.43
2022-12-04T02:06:51.499Z,50.37
2022-12-04T02:09:26.221Z,54.10
2022-12-04T02:12:03.583Z,52.37
2022-12-04T02:14:38.743Z,49.83
2022-12-04T02:17:17.827Z,51.93
2022-12-04T02:20:13.569Z,48.70
2022-12-04T02:23:02.868Z,47.47
2022-12-04T02:25:41.305Z,53.27
2022-12-04T02:28:18.520Z,47.10
2022-12-04T02:30:48.305Z,50.87
2022-12-04T02:33:21.534Z,53.33
2022-12-04T02:35:56.065Z,49.63
2022-12-04T02:38:28.117Z,52.43
2022-12-04T02:41:00.545Z,46.10
2022-12-04T02:43:33.649Z,52.07
2022-12-04T02:46:08.147Z,49.53
2022-12-04T02:48:40.565Z,47.33
2022-12-04T02:51:12.567Z,51.83
2022-12-04T02:53:46.736Z,51.00
2022-12-04T02:56:20.165Z,52.90
2022-12-04T02:58:54.899Z,49.57
2022-12-04T03:01:28.952Z,50.77
2022-12-04T03:04:01.777Z,49.57
2022-12-04T03:06:34.142Z,51.07
2022-12-04T03:09:09.702Z,48.77
2022-12-04T03:11:41.470Z,48.93
2022-12-04T03:14:15.623Z,54.10
2022-12-04T03:16:44.610Z,46.10
2022-12-04T03:19:17.080Z,53.10
2022-12-04T03:21:49.136Z,48.43
2022-12-04T03:24:22.067Z,48.60
2022-12-04T03:26:58.407Z,53.53
2022-12-04T03:29:35.298Z,48.07
2022-12-04T03:32:11.952Z,44.93
2022-12-04T03:34:48.463Z,46.73
2022-12-04T03:37:20.536Z,48.43
2022-12-04T03:39:58.110Z,46.67
2022-12-04T03:42:29.817Z,43.27
2022-12-04T03:45:05.203Z,46.40
2022-12-04T03:47:39.780Z,47.67
2022-12-04T03:50:11.210Z,47.67
2022-12-04T03:52:50.850Z,46.93
2022-12-04T03:55:25.387Z,49.40
2022-12-04T03:57:59.688Z,46.13
2022-12-04T04:00:31.953Z,50.33
2022-12-04T04:03:07.772Z,46.57
2022-12-04T04:05:43.064Z,50.13
2022-12-04T04:08:33.851Z,50.70
2022-12-04T04:11:11.282Z,49.43
2022-12-04T04:14:06.704Z,50.93
2022-12-04T04:16:56.920Z,48.50
2022-12-04T04:19:46.806Z,47.77
2022-12-04T04:22:35.643Z,43.47
2022-12-04T04:25:08.759Z,48.57
2022-12-04T04:27:36.921Z,46.47
2022-12-04T04:30:06.417Z,47.80
2022-12-04T04:32:42.045Z,54.10
2022-12-04T04:35:18.830Z,49.97
2022-12-04T04:37:57.464Z,47.23
2022-12-04T04:40:34.875Z,49.50
2022-12-04T04:43:11.011Z,50.00
2022-12-04T04:45:44.658Z,52.20
2022-12-04T04:48:17.645Z,49.00
2022-12-04T04:50:47.111Z,49.47
2022-12-04T04:53:21.119Z,49.77
2022-12-04T04:55:50.010Z,47.77
2022-12-04T04:58:21.559Z,49.03
2022-12-04T05:00:58.865Z,55.87
2022-12-04T05:03:29.663Z,50.87
2022-12-04T05:05:58.216Z,48.13
2022-12-04T05:08:26.603Z,48.13
2022-12-04T05:10:55.175Z,46.40
2022-12-04T05:13:23.804Z,49.17
2022-12-04T05:15:58.369Z,51.40
2022-12-04T05:18:28.277Z,50.87
2022-12-04T05:20:56.764Z,52.23
2022-12-04T05:23:25.748Z,50.00
2022-12-04T05:26:00.362Z,49.17
2022-12-04T05:28:28.708Z,48.43
2022-12-04T05:30:57.365Z,47.73
2022-12-04T05:33:26.255Z,47.40
2022-12-04T05:36:00.657Z,51.70
2022-12-04T05:38:28.909Z,49.80
2022-12-04T05:40:59.122Z,48.20
2022-12-04T05:43:27.821Z,48.67
2022-12-04T05:45:56.428Z,52.77
2022-12-04T05:48:24.556Z,52.23
2022-12-04T05:50:52.680Z,47.77
2022-12-04T05:53:22.178Z,50.80
2022-12-04T05:55:55.724Z,48.47
2022-12-04T05:58:23.989Z,51.10
2022-12-04T06:00:52.155Z,49.97
2022-12-04T06:03:20.542Z,47.90
2022-12-04T06:05:48.740Z,50.13
2022-12-04T06:08:17.261Z,49.03
2022-12-04T06:10:46.718Z,48.33
2022-12-04T06:13:14.858Z,50.00
2022-12-04T06:15:43.011Z,50.23
2022-12-04T06:18:11.217Z,52.97
2022-12-04T06:20:39.449Z,47.50
2022-12-04T06:23:07.600Z,49.47
2022-12-04T06:25:35.735Z,47.27
2022-12-04T06:28:05.277Z,49.27
2022-12-04T06:30:34.830Z,51.10
2022-12-04T06:33:02.988Z,51.83
2022-12-04T06:35:31.190Z,48.47
2022-12-04T06:38:00.052Z,50.37
2022-12-04T06:40:28.267Z,50.73
2022-12-04T06:42:57.585Z,49.90
2022-12-04T06:45:27.093Z,48.70
2022-12-04T06:47:55.235Z,49.90
2022-12-04T06:50:23.361Z,46.50
2022-12-04T06:52:51.487Z,47.87
2022-12-04T06:55:19.629Z,50.90
2022-12-04T06:57:47.807Z,46.97
2022-12-04T07:00:17.528Z,47.53
2022-12-04T07:02:47.142Z,49.67
2022-12-04T07:05:15.419Z,47.17
2022-12-04T07:07:43.617Z,50.13
2022-12-04T07:10:12.346Z,52.40
2022-12-04T07:12:40.491Z,50.93
2022-12-04T07:15:09.867Z,49.57
2022-12-04T07:17:37.987Z,49.50
2022-12-04T07:20:08.589Z,45.87
2022-12-04T07:22:36.719Z,49.10
2022-12-04T07:25:05.111Z,49.97
2022-12-04T07:27:33.261Z,48.17
2022-12-04T07:30:01.399Z,51.40
2022-12-04T07:32:29.537Z,51.80
2022-12-04T07:34:57.705Z,47.37
2022-12-04T07:37:27.184Z,49.13
2022-12-04T07:39:55.715Z,48.27
2022-12-04T07:42:24.453Z,50.57
2022-12-04T07:44:52.994Z,50.57
2022-12-04T07:47:21.169Z,46.90
2022-12-04T07:49:49.310Z,48.50
2022-12-04T07:52:17.434Z,49.40
2022-12-04T07:54:46.921Z,49.37
2022-12-04T07:57:15.600Z,48.90
2022-12-04T07:59:43.724Z,48.40
2022-12-04T08:02:13.167Z,43.37
2022-12-04T08:04:41.338Z,48.60
2022-12-04T08:07:09.525Z,47.57
2022-12-04T08:09:37.660Z,49.10
2022-12-04T08:12:07.894Z,44.10
2022-12-04T08:14:36.003Z,48.17
2022-12-04T08:17:04.260Z,47.70
2022-12-04T08:19:32.452Z,45.00
2022-12-04T08:22:00.576Z,44.47
2022-12-04T08:24:28.702Z,45.40
2022-12-04T08:26:56.825Z,48.00
2022-12-04T08:29:26.304Z,47.00
2022-12-04T08:31:54.670Z,47.90
2022-12-04T08:34:22.836Z,44.43
2022-12-04T08:36:51.006Z,44.57
2022-12-04T08:39:19.131Z,47.10
2022-12-04T08:41:49.101Z,41.93
2022-12-04T08:44:20.624Z,45.47
2022-12-04T08:46:50.223Z,48.87
2022-12-04T08:49:18.392Z,45.10
2022-12-04T08:51:46.512Z,42.67
2022-12-04T08:54:14.764Z,44.57
2022-12-04T08:56:44.473Z,46.50
2022-12-04T08:59:14.152Z,41.63
2022-12-04T09:01:42.433Z,46.70
2022-12-04T09:04:12.002Z,41.97
2022-12-04T09:06:40.469Z,43.77
2022-12-04T09:09:08.596Z,47.53
2022-12-04T09:11:37.081Z,41.07
2022-12-04T09:14:05.718Z,47.23
2022-12-04T09:16:33.930Z,40.40
2022-12-04T09:19:02.249Z,44.77
2022-12-04T09:21:31.734Z,42.13
2022-12-04T09:24:00.520Z,44.23
2022-12-04T09:26:31.389Z,44.03
2022-12-04T09:29:01.493Z,42.50
2022-12-04T09:31:31.004Z,42.83
2022-12-04T09:33:59.696Z,42.60
2022-12-04T09:36:27.967Z,42.03
2022-12-04T09:38:58.668Z,41.10
2022-12-04T09:41:59.619Z,40.23
2022-12-04T09:44:33.164Z,39.20
2022-12-04T09:47:04.104Z,43.47
2022-12-04T09:49:38.189Z,40.57
2022-12-04T09:52:20.309Z,40.10
2022-12-04T09:54:53.554Z,42.50
2022-12-04T09:57:32.529Z,39.63
2022-12-04T10:00:00.818Z,39.90
2022-12-04T10:02:38.088Z,40.10
2022-12-04T10:05:08.813Z,40.10
2022-12-04T10:07:46.772Z,40.17
2022-12-04T10:10:24.422Z,38.43
2022-12-04T10:13:01.072Z,40.23
2022-12-04T10:15:39.000Z,39.90
2022-12-04T10:18:20.180Z,41.80
2022-12-04T10:21:00.238Z,37.33
2022-12-04T10:23:38.997Z,38.93
2022-12-04T10:26:16.117Z,39.80
2022-12-04T10:28:53.519Z,36.20
2022-12-04T10:31:25.566Z,38.33
2022-12-04T10:33:57.678Z,38.77
2022-12-04T10:36:31.290Z,36.73
2022-12-04T10:39:02.192Z,39.33
2022-12-04T10:41:39.134Z,39.43
2022-12-04T10:44:07.577Z,34.13
2022-12-04T10:46:36.342Z,35.80
2022-12-04T10:49:09.533Z,39.80
2022-12-04T10:51:41.026Z,39.07
2022-12-04T10:54:18.220Z,36.23
2022-12-04T10:56:54.180Z,38.53
2022-12-04T10:59:23.202Z,37.13
2022-12-04T11:01:53.064Z,37.27
2022-12-04T11:04:24.770Z,37.77
2022-12-04T11:07:01.922Z,39.00
2022-12-04T11:09:30.423Z,37.23
2022-12-04T11:12:09.601Z,37.37
2022-12-04T11:14:37.916Z,35.97
2022-12-04T11:17:07.486Z,37.90
2022-12-04T11:19:37.190Z,37.77
2022-12-04T11:22:13.317Z,40.00
2022-12-04T11:24:42.848Z,38.87
2022-12-04T11:27:22.297Z,38.73
2022-12-04T11:29:51.039Z,39.03
2022-12-04T11:32:23.607Z,39.60
2022-12-04T11:34:55.021Z,41.57
2022-12-04T11:37:27.336Z,41.90
2022-12-04T11:39:56.620Z,41.00
2022-12-04T11:42:28.156Z,41.83
2022-12-04T11:44:59.717Z,39.70
2022-12-04T11:47:30.171Z,38.80
2022-12-04T11:50:03.346Z,39.80
2022-12-04T11:52:46.331Z,40.90
2022-12-04T11:55:25.274Z,41.13
2022-12-04T11:58:14.871Z,42.00
2022-12-04T12:00:50.912Z,46.17
2022-12-04T12:03:27.366Z,40.00
2022-12-04T12:06:30.900Z,46.00
2022-12-04T12:09:15.144Z,43.50
2022-12-04T12:11:50.614Z,42.70
2022-12-04T12:14:30.503Z,41.50
2022-12-04T12:17:10.339Z,40.30
2022-12-04T12:19:56.492Z,43.57
2022-12-04T12:22:40.251Z,43.40
2022-12-04T12:25:18.935Z,42.50
2022-12-04T12:28:03.290Z,45.33
2022-12-04T12:30:43.014Z,42.30
2022-12-04T12:33:19.150Z,45.10
2022-12-04T12:35:52.621Z,42.03
2022-12-04T12:38:25.953Z,45.43
2022-12-04T12:40:58.081Z,42.80
2022-12-04T12:43:31.018Z,48.83
2022-12-04T12:46:06.975Z,47.10
2022-12-04T12:48:41.052Z,43.40
2022-12-04T12:51:30.129Z,45.97
2022-12-04T12:54:05.621Z,45.80
2022-12-04T12:56:40.508Z,47.33
2022-12-04T12:59:16.461Z,44.70
2022-12-04T13:01:54.751Z,47.97
2022-12-04T13:04:33.081Z,45.00
2022-12-04T13:07:15.240Z,46.93
2022-12-04T13:09:49.178Z,50.80
2022-12-04T13:12:21.420Z,46.80
2022-12-04T13:14:49.564Z,49.40
2022-12-04T13:17:24.953Z,44.17
2022-12-04T13:19:56.166Z,45.60
2022-12-04T13:22:30.068Z,46.07
2022-12-04T13:25:10.348Z,46.07
2022-12-04T13:27:52.630Z,46.33
2022-12-04T13:30:22.725Z,45.90
2022-12-04T13:33:12.560Z,50.37
2022-12-04T13:36:01.600Z,49.57
2022-12-04T13:38:39.689Z,48.43
2022-12-04T13:41:11.768Z,50.17
2022-12-04T13:43:47.347Z,52.37
2022-12-04T13:46:31.253Z,47.47
2022-12-04T13:49:10.932Z,48.10
2022-12-04T13:51:40.404Z,54.60
2022-12-04T13:54:31.267Z,52.17
2022-12-04T13:57:19.552Z,52.03
2022-12-04T13:59:48.847Z,50.53
2022-12-04T14:02:29.787Z,48.97
2022-12-04T14:05:01.854Z,48.50
2022-12-04T14:07:33.135Z,53.60
2022-12-04T14:10:04.761Z,51.23
2022-12-04T14:12:36.181Z,53.70
2022-12-04T14:15:07.683Z,50.80
2022-12-04T14:17:38.964Z,51.70
2022-12-04T14:20:22.928Z,54.27
2022-12-04T14:22:51.220Z,50.47
2022-12-04T14:25:35.841Z,49.40
2022-12-04T14:28:27.039Z,50.80
2022-12-04T14:31:06.312Z,51.77
2022-12-04T14:33:40.235Z,50.20
2022-12-04T14:36:17.984Z,53.00
2022-12-04T14:38:49.034Z,55.80
2022-12-04T14:41:25.566Z,48.63
2022-12-04T14:43:54.136Z,54.90
2022-12-04T14:46:31.538Z,54.97
2022-12-04T14:49:12.948Z,58.00
2022-12-04T14:51:50.115Z,57.70
2022-12-04T14:54:27.649Z,57.30
2022-12-04T14:57:11.959Z,56.47
2022-12-04T14:59:45.112Z,54.67
2022-12-04T15:02:20.721Z,57.77
2022-12-04T15:04:51.303Z,55.80
2022-12-04T15:07:22.428Z,55.80
2022-12-04T15:10:12.871Z,56.13
2022-12-04T15:12:45.802Z,59.47
2022-12-04T15:15:19.257Z,54.50
2022-12-04T15:17:57.985Z,56.23
2022-12-04T15:20:27.298Z,55.40
2022-12-04T15:22:58.917Z,59.33
2022-12-04T15:25:30.718Z,56.53
2022-12-04T15:28:06.679Z,55.50
2022-12-04T15:30:38.784Z,61.93
2022-12-04T15:33:07.367Z,62.60
2022-12-04T15:35:35.936Z,65.20
2022-12-04T15:38:05.525Z,61.43
2022-12-04T15:40:33.661Z,63.90
2022-12-04T15:43:16.633Z,59.17
2022-12-04T15:45:45.570Z,56.57
2022-12-04T15:48:24.245Z,61.30
2022-12-04T15:50:58.028Z,61.10
2022-12-04T15:53:29.865Z,60.37
2022-12-04T15:56:02.417Z,59.00
2022-12-04T15:58:32.696Z,59.80
2022-12-04T16:01:03.316Z,58.37
2022-12-04T16:03:34.005Z,60.47
2022-12-04T16:06:17.606Z,55.73
2022-12-04T16:08:48.800Z,61.30
2022-12-04T16:11:34.548Z,56.63
2022-12-04T16:14:15.484Z,52.70
2022-12-04T16:16:45.779Z,54.00
2022-12-04T16:19:18.291Z,51.33
2022-12-04T16:21:46.799Z,54.60
2022-12-04T16:24:16.460Z,53.50
2022-12-04T16:26:44.639Z,57.70
2022-12-04T16:29:12.772Z,55.17
2022-12-04T16:31:41.035Z,56.70
2022-12-04T16:34:12.357Z,56.53
2022-12-04T16:36:40.882Z,55.47
2022-12-04T16:39:09.059Z,53.23
2022-12-04T16:41:38.539Z,53.90
2022-12-04T16:44:14.240Z,54.07
2022-12-04T16:46:43.025Z,53.20
2022-12-04T16:49:12.744Z,79.87
2022-12-04T16:51:46.781Z,157.83
2022-12-04T16:54:15.006Z,56.13
2022-12-04T16:56:44.480Z,57.03
2022-12-04T16:59:12.752Z,57.77
2022-12-04T17:01:44.240Z,51.40
2022-12-04T17:04:12.711Z,52.73
2022-12-04T17:06:41.262Z,52.80
2022-12-04T17:09:09.731Z,53.27
2022-12-04T17:11:38.092Z,55.77
2022-12-04T17:14:08.010Z,52.90
2022-12-04T17:16:36.814Z,51.30
2022-12-04T17:19:05.459Z,50.90
2022-12-04T17:21:34.241Z,53.70
2022-12-04T17:24:02.987Z,54.70
2022-12-04T17:26:31.157Z,53.27
2022-12-04T17:28:59.669Z,52.20
2022-12-04T17:31:29.247Z,51.60
2022-12-04T17:33:58.161Z,51.60
2022-12-04T17:36:27.598Z,52.30
2022-12-04T17:38:56.500Z,49.23
2022-12-04T17:41:25.154Z,51.73
2022-12-04T17:43:53.568Z,53.80
2022-12-04T17:46:24.584Z,47.33
2022-12-04T17:48:56.691Z,47.20
2022-12-04T17:51:26.110Z,50.50
2022-12-04T17:53:54.844Z,49.40
2022-12-04T17:56:24.988Z,47.80
2022-12-04T17:58:54.343Z,47.47
2022-12-04T18:01:24.935Z,49.60
2022-12-04T18:03:57.011Z,46.10
2022-12-04T18:06:27.476Z,49.43
2022-12-04T18:08:56.240Z,47.47
2022-12-04T18:11:26.129Z,47.60
2022-12-04T18:13:56.520Z,50.53
2022-12-04T18:16:25.295Z,49.33
2022-12-04T18:18:55.487Z,47.80
2022-12-04T18:21:24.056Z,48.77
2022-12-04T18:23:53.101Z,48.70
2022-12-04T18:26:24.121Z,50.60
2022-12-04T18:28:53.243Z,50.90
2022-12-04T18:31:22.156Z,47.60
2022-12-04T18:33:50.349Z,46.97
2022-12-04T18:36:23.524Z,50.93
2022-12-04T18:38:55.399Z,48.40
2022-12-04T18:41:24.288Z,47.67
2022-12-04T18:43:52.768Z,48.17
2022-12-04T18:46:21.909Z,52.63
2022-12-04T18:48:53.487Z,48.57
2022-12-04T18:51:25.202Z,48.47
2022-12-04T18:53:55.537Z,47.27
2022-12-04T18:56:23.941Z,48.63
2022-12-04T18:58:57.423Z,48.27
2022-12-04T19:01:25.719Z,51.53
2022-12-04T19:03:57.862Z,50.17
2022-12-04T19:06:31.619Z,50.73
2022-12-04T19:09:01.376Z,51.87
2022-12-04T19:11:29.610Z,49.87
2022-12-04T19:13:58.654Z,49.60
2022-12-04T19:16:27.416Z,51.63
2022-12-04T19:18:56.802Z,55.40
2022-12-04T19:21:25.479Z,51.80
2022-12-04T19:23:59.063Z,54.73
2022-12-04T19:26:28.296Z,54.17
2022-12-04T19:28:57.472Z,53.67
2022-12-04T19:31:28.279Z,53.60
2022-12-04T19:33:57.756Z,52.03
2022-12-04T19:36:26.938Z,50.83
2022-12-04T19:38:57.771Z,50.40
2022-12-04T19:41:29.989Z,53.20
2022-12-04T19:44:00.109Z,53.30
2022-12-04T19:46:31.063Z,52.57
2022-12-04T19:49:03.630Z,49.07
2022-12-04T19:51:33.674Z,51.13
2022-12-04T19:54:03.273Z,47.70
2022-12-04T19:56:33.079Z,52.10
2022-12-04T19:59:03.190Z,55.70
2022-12-04T20:01:32.328Z,53.70
2022-12-04T20:04:03.415Z,56.40
2022-12-04T20:06:35.308Z,53.57
2022-12-04T20:09:07.107Z,49.00
2022-12-04T20:11:35.496Z,49.10
2022-12-04T20:14:05.676Z,53.30
2022-12-04T20:16:35.470Z,48.77
2022-12-04T20:19:05.452Z,59.07
2022-12-04T20:21:34.486Z,51.53
2022-12-04T20:24:06.827Z,56.97
2022-12-04T20:26:38.249Z,51.13
2022-12-04T20:29:08.645Z,56.90
2022-12-04T20:31:38.395Z,53.67
2022-12-04T20:34:08.905Z,55.43
2022-12-04T20:36:39.166Z,55.10
2022-12-04T20:39:10.454Z,53.53
2022-12-04T20:41:40.747Z,55.97
2022-12-04T20:44:13.295Z,58.83
2022-12-04T20:46:42.811Z,55.43
2022-12-04T20:49:18.758Z,58.37
2022-12-04T20:51:49.563Z,55.67
2022-12-04T20:54:20.779Z,53.67
2022-12-04T20:56:50.009Z,56.00
2022-12-04T20:59:19.753Z,57.07
2022-12-04T21:01:49.401Z,60.07
2022-12-04T21:04:18.608Z,57.07
2022-12-04T21:06:47.667Z,56.77
2022-12-04T21:09:18.024Z,59.37
2022-12-04T21:11:49.054Z,54.87
2022-12-04T21:14:36.703Z,55.37
2022-12-04T21:17:07.515Z,59.20
2022-12-04T21:19:36.610Z,60.30
2022-12-04T21:22:05.026Z,57.10
2022-12-04T21:24:38.271Z,57.07
2022-12-04T21:27:09.133Z,57.27
2022-12-04T21:29:38.404Z,58.07
2022-12-04T21:32:07.955Z,65.00
2022-12-04T21:34:36.372Z,59.17
2022-12-04T21:37:04.581Z,61.40
2022-12-04T21:39:32.973Z,63.97
2022-12-04T21:42:18.588Z,62.77
2022-12-04T21:44:48.383Z,57.73
2022-12-04T21:47:16.556Z,65.50
2022-12-04T21:49:45.148Z,56.57
2022-12-04T21:52:13.390Z,64.07
2022-12-04T21:54:41.546Z,56.20
2022-12-04T21:57:09.852Z,62.07
2022-12-04T21:59:37.982Z,58.70
2022-12-04T22:02:07.531Z,60.37
2022-12-04T22:04:35.741Z,68.77
2022-12-04T22:07:03.904Z,62.33
2022-12-04T22:09:32.148Z,64.13
2022-12-04T22:12:00.539Z,55.90
2022-12-04T22:14:29.091Z,68.03
2022-12-04T22:16:57.236Z,65.13
2022-12-04T22:19:26.820Z,66.57
2022-12-04T22:21:55.227Z,57.03
2022-12-04T22:24:23.392Z,60.50
2022-12-04T22:26:51.528Z,68.87
2022-12-04T22:29:50.253Z,69.40
2022-12-04T22:32:07.897Z,62.77
2022-12-04T22:34:37.359Z,68.90
2022-12-04T22:37:05.479Z,63.80
2022-12-04T22:39:33.970Z,68.20
2022-12-04T22:42:02.102Z,64.20
2022-12-04T22:44:30.256Z,65.63
2022-12-04T22:46:58.438Z,63.93
2022-12-04T22:49:26.659Z,62.40
2022-12-04T22:51:56.134Z,67.03
2022-12-04T22:54:24.697Z,58.60
2022-12-04T22:56:53.331Z,59.77
2022-12-04T22:59:21.519Z,65.90
2022-12-04T23:01:49.655Z,60.53
2022-12-04T23:04:17.781Z,57.63
2022-12-04T23:06:45.940Z,65.30
2022-12-04T23:09:17.560Z,64.67
2022-12-04T23:11:46.474Z,65.07
2022-12-04T23:14:15.815Z,62.67
2022-12-04T23:16:44.402Z,64.47
2022-12-04T23:19:14.795Z,66.30
2022-12-04T23:21:43.673Z,58.40
2022-12-04T23:24:12.406Z,63.70
2022-12-04T23:26:44.291Z,62.03
2022-12-04T23:29:36.895Z,59.07
2022-12-04T23:32:01.085Z,63.23
2022-12-04T23:34:29.325Z,57.20
2022-12-04T23:36:57.468Z,58.60
2022-12-04T23:39:25.615Z,59.27
2022-12-04T23:41:55.081Z,56.70
2022-12-04T23:44:23.217Z,58.00
2022-12-04T23:46:51.400Z,58.07
2022-12-04T23:49:19.588Z,62.97
2022-12-04T23:51:47.788Z,58.67
2022-12-04T23:54:16.217Z,61.30
2022-12-04T23:56:45.148Z,58.07
2022-12-04T23:59:14.618Z,58.87
